Time;durP1;ratioP1;P1;durP2;ratioP2;P2;SDS_P1;SDS_P2;PMS_P1;PMS_P2;Temp;Humidity;BMP_temperature;BMP_pressure;BME280_temperature;BME280_humidity;BME280_pressure;Samples;Min_cycle;Max_cycle;Signal;HPM_P1;HPM_P2
2022/04/29 00:00:47;;;;;;;;;;;6.60;99.90;;;;;;5063463;28;19932;-65
2022/04/29 00:03:14;;;;;;;;;;;6.70;99.90;;;;;;5039284;28;19925;-66
2022/04/29 00:05:41;;;;;;;;;;;6.80;99.90;;;;;;5048327;28;19929;-66
2022/04/29 00:08:09;;;;;;;;;;;6.90;99.90;;;;;;5046847;28;19959;-66
2022/04/29 00:10:36;;;;;;;;;;;7.00;99.90;;;;;;5048269;28;19960;-66
2022/04/29 00:13:06;;;;;;;;;;;7.00;99.90;;;;;;5061654;28;19924;-66
2022/04/29 00:15:32;;;;;;;;;;;7.00;99.90;;;;;;5050429;28;19932;-66
2022/04/29 00:17:59;;;;;;;;;;;7.00;99.90;;;;;;5050176;28;20015;-66
2022/04/29 00:20:26;;;;;;;;;;;7.00;99.90;;;;;;5050639;28;20015;-66
2022/04/29 00:22:52;;;;;;;;;;;6.90;99.90;;;;;;5041770;28;20402;-66
2022/04/29 00:25:19;;;;;;;;;;;6.80;99.90;;;;;;5048884;28;19931;-67
2022/04/29 00:27:46;;;;;;;;;;;6.70;99.90;;;;;;5047622;28;19925;-65
2022/04/29 00:30:12;;;;;;;;;;;6.60;99.90;;;;;;5048699;28;19936;-66
2022/04/29 00:32:39;;;;;;;;;;;6.40;99.90;;;;;;5048519;28;19924;-66
2022/04/29 00:35:09;;;;;;;;;;;6.30;99.90;;;;;;5049838;28;20024;-66
2022/04/29 00:37:56;;;;;;;;;;;6.10;99.90;;;;;;5044746;28;19924;-66
2022/04/29 00:40:26;;;;;;;;;;;5.90;99.90;;;;;;5049350;28;19924;-66
2022/04/29 00:42:53;;;;;;;;;;;5.70;99.90;;;;;;5049145;28;20530;-66
2022/04/29 00:45:20;;;;;;;;;;;5.60;99.90;;;;;;5051053;28;20015;-66
2022/04/29 00:47:48;;;;;;;;;;;5.50;99.90;;;;;;5048112;28;20022;-65
2022/04/29 00:50:15;;;;;;;;;;;5.40;99.90;;;;;;5050633;28;19929;-65
2022/04/29 00:52:43;;;;;;;;;;;5.30;99.90;;;;;;5048683;28;19972;-65
2022/04/29 00:55:11;;;;;;;;;;;5.20;99.90;;;;;;5065878;28;20311;-66
2022/04/29 00:57:44;;;;;;;;;;;5.10;99.90;;;;;;5046523;28;19944;-66
2022/04/29 01:00:11;;;;;;;;;;;5.10;99.90;;;;;;5043150;28;20015;-66
2022/04/29 01:02:41;;;;;;;;;;;5.00;99.90;;;;;;5050311;28;19931;-66
2022/04/29 01:05:10;;;;;;;;;;;5.00;99.90;;;;;;5048610;28;19925;-65
2022/04/29 01:07:37;;;;;;;;;;;5.00;99.90;;;;;;5043877;28;19935;-66
2022/04/29 01:10:05;;;;;;;;;;;4.90;99.90;;;;;;5050331;28;20570;-65
2022/04/29 01:12:35;;;;;;;;;;;4.90;99.90;;;;;;5050273;28;19968;-66
2022/04/29 01:15:06;;;;;;;;;;;5.00;99.90;;;;;;5048840;28;20023;-65
2022/04/29 01:17:34;;;;;;;;;;;5.00;99.90;;;;;;5048159;28;20011;-65
2022/04/29 01:20:03;;;;;;;;;;;5.00;99.90;;;;;;5049478;28;20165;-65
2022/04/29 01:22:37;;;;;;;;;;;5.00;99.90;;;;;;5051939;28;19925;-66
2022/04/29 01:25:03;;;;;;;;;;;4.90;99.90;;;;;;5053087;28;19932;-66
2022/04/29 01:27:32;;;;;;;;;;;4.90;99.90;;;;;;5046823;28;19932;-66
2022/04/29 01:30:05;;;;;;;;;;;4.80;99.90;;;;;;5053489;28;19932;-66
2022/04/29 01:32:36;;;;;;;;;;;4.80;99.90;;;;;;5052774;28;19933;-66
2022/04/29 01:35:03;;;;;;;;;;;4.90;99.90;;;;;;5052518;28;20286;-66
2022/04/29 01:37:30;;;;;;;;;;;5.00;99.90;;;;;;5050789;28;19931;-66
2022/04/29 01:39:57;;;;;;;;;;;5.10;99.90;;;;;;5053269;28;20605;-65
2022/04/29 01:42:24;;;;;;;;;;;5.10;99.90;;;;;;5052599;28;19925;-66
2022/04/29 01:44:55;;;;;;;;;;;5.10;99.90;;;;;;5053227;28;19968;-66
2022/04/29 01:47:22;;;;;;;;;;;5.10;99.90;;;;;;5051921;28;19925;-67
2022/04/29 01:49:49;;;;;;;;;;;5.10;99.90;;;;;;5049839;28;19937;-65
2022/04/29 01:52:15;;;;;;;;;;;5.10;99.90;;;;;;5086097;28;19931;-64
2022/04/29 01:54:42;;;;;;;;;;;5.10;99.90;;;;;;5051638;28;20011;-65
2022/04/29 01:57:09;;;;;;;;;;;5.00;99.90;;;;;;5053217;28;20422;-65
2022/04/29 01:59:36;;;;;;;;;;;5.00;99.90;;;;;;5051511;28;19936;-65
2022/04/29 02:02:06;;;;;;;;;;;5.00;99.90;;;;;;5050421;28;19947;-65
2022/04/29 02:04:34;;;;;;;;;;;4.90;99.90;;;;;;5084672;28;19979;-66
2022/04/29 02:07:01;;;;;;;;;;;4.80;99.90;;;;;;5051090;28;20414;-66
2022/04/29 02:09:31;;;;;;;;;;;4.70;99.90;;;;;;5048500;28;20016;-65
2022/04/29 02:12:06;;;;;;;;;;;4.70;99.90;;;;;;5052037;28;19924;-66
2022/04/29 02:14:37;;;;;;;;;;;4.70;99.90;;;;;;5067176;28;20444;-66
2022/04/29 02:17:08;;;;;;;;;;;4.60;99.90;;;;;;5051914;28;19924;-66
2022/04/29 02:19:37;;;;;;;;;;;4.60;99.90;;;;;;5066906;28;19938;-66
2022/04/29 02:22:05;;;;;;;;;;;4.50;99.90;;;;;;5052065;28;19929;-66
2022/04/29 02:24:35;;;;;;;;;;;4.50;99.90;;;;;;5051344;28;19967;-66
2022/04/29 02:27:08;;;;;;;;;;;4.40;99.90;;;;;;5066484;28;19932;-66
2022/04/29 02:29:38;;;;;;;;;;;4.40;99.90;;;;;;5052402;28;19931;-66
2022/04/29 02:32:05;;;;;;;;;;;4.40;99.90;;;;;;5049867;28;19964;-66
2022/04/29 02:34:36;;;;;;;;;;;4.40;99.90;;;;;;5052587;28;19924;-65
2022/04/29 02:37:04;;;;;;;;;;;4.40;99.90;;;;;;5051951;28;19935;-65
2022/04/29 02:39:32;;;;;;;;;;;4.40;99.90;;;;;;5050091;28;19972;-65
2022/04/29 02:41:59;;;;;;;;;;;4.40;99.90;;;;;;5051168;28;19931;-65
2022/04/29 02:44:26;;;;;;;;;;;4.40;99.90;;;;;;5040260;28;20019;-65
2022/04/29 02:47:08;;;;;;;;;;;4.40;99.90;;;;;;5049843;28;19925;-65
2022/04/29 02:49:35;;;;;;;;;;;4.40;99.90;;;;;;5051033;28;20720;-65
2022/04/29 02:52:09;;;;;;;;;;;4.30;99.90;;;;;;5050546;28;20271;-65
2022/04/29 02:54:37;;;;;;;;;;;4.30;99.90;;;;;;5052833;28;19966;-65
2022/04/29 02:57:03;;;;;;;;;;;4.30;99.90;;;;;;5051446;28;20332;-65
2022/04/29 02:59:30;;;;;;;;;;;4.30;99.90;;;;;;5051026;28;20007;-65
2022/04/29 03:01:58;;;;;;;;;;;4.30;99.90;;;;;;5050644;28;19963;-65
2022/04/29 03:04:25;;;;;;;;;;;4.30;99.90;;;;;;5051929;28;19981;-65
2022/04/29 03:06:53;;;;;;;;;;;4.30;99.90;;;;;;5050732;28;19931;-66
2022/04/29 03:09:20;;;;;;;;;;;4.30;99.90;;;;;;5056340;28;19929;-65
2022/04/29 03:11:49;;;;;;;;;;;4.40;99.90;;;;;;5059284;28;19928;-65
2022/04/29 03:14:16;;;;;;;;;;;4.50;99.90;;;;;;5050278;28;20007;-65
2022/04/29 03:16:49;;;;;;;;;;;4.60;99.90;;;;;;5049045;28;19960;-65
2022/04/29 03:19:15;;;;;;;;;;;4.60;99.90;;;;;;5051639;28;19962;-65
2022/04/29 03:21:45;;;;;;;;;;;4.50;99.90;;;;;;5050554;28;19925;-65
2022/04/29 03:24:12;;;;;;;;;;;4.50;99.90;;;;;;5049157;28;19968;-65
2022/04/29 03:26:40;;;;;;;;;;;4.40;99.90;;;;;;5051703;28;20360;-65
2022/04/29 03:29:07;;;;;;;;;;;4.40;99.90;;;;;;5049700;28;20016;-65
2022/04/29 03:31:33;;;;;;;;;;;4.30;99.90;;;;;;5050924;28;19928;-66
2022/04/29 03:34:00;;;;;;;;;;;4.30;99.90;;;;;;5050062;28;19996;-65
2022/04/29 03:36:27;;;;;;;;;;;4.30;99.90;;;;;;5051287;28;20003;-66
2022/04/29 03:38:56;;;;;;;;;;;4.20;99.90;;;;;;5048461;28;20033;-65
2022/04/29 03:41:23;;;;;;;;;;;4.10;99.90;;;;;;5049776;28;19992;-65
2022/04/29 03:43:56;;;;;;;;;;;4.10;99.90;;;;;;5040821;28;19929;-65
2022/04/29 03:46:23;;;;;;;;;;;4.00;99.90;;;;;;5048847;28;19929;-66
2022/04/29 03:51:35;;;;;;;;;;;4.00;99.90;;;;;;5052447;28;20264;-66
2022/04/29 03:54:01;;;;;;;;;;;4.00;99.90;;;;;;5055060;28;19985;-66
2022/04/29 03:56:28;;;;;;;;;;;4.10;99.90;;;;;;5052795;28;19929;-66
2022/04/29 03:58:56;;;;;;;;;;;4.20;99.90;;;;;;5055035;28;19979;-66
2022/04/29 04:01:23;;;;;;;;;;;4.20;99.90;;;;;;5057732;28;19984;-66
2022/04/29 04:03:50;;;;;;;;;;;4.10;99.90;;;;;;5052970;28;19934;-65
2022/04/29 04:09:02;;;;;;;;;;;4.00;99.90;;;;;;5055249;28;20419;-66
2022/04/29 04:11:28;;;;;;;;;;;3.90;99.90;;;;;;5054584;28;19924;-65
2022/04/29 04:13:55;;;;;;;;;;;3.90;99.90;;;;;;5044745;28;20311;-65
2022/04/29 04:16:24;;;;;;;;;;;3.90;99.90;;;;;;5047338;28;19975;-65
2022/04/29 04:18:51;;;;;;;;;;;4.00;99.90;;;;;;5051109;28;20261;-65
2022/04/29 04:21:18;;;;;;;;;;;4.20;99.90;;;;;;5048850;28;20020;-65
2022/04/29 04:23:45;;;;;;;;;;;4.30;99.90;;;;;;5049432;28;20003;-66
2022/04/29 04:26:14;;;;;;;;;;;4.60;99.90;;;;;;5049643;28;20007;-66
2022/04/29 04:28:41;;;;;;;;;;;4.80;99.90;;;;;;5050454;28;19925;-66
2022/04/29 04:31:08;;;;;;;;;;;5.10;99.90;;;;;;5062066;28;19932;-67
2022/04/29 04:33:35;;;;;;;;;;;5.40;99.90;;;;;;5042176;28;20419;-67
2022/04/29 04:36:03;;;;;;;;;;;5.70;99.90;;;;;;5049778;28;20024;-67
2022/04/29 04:38:31;;;;;;;;;;;6.00;99.90;;;;;;5044057;28;19925;-67
2022/04/29 04:40:58;;;;;;;;;;;6.20;99.90;;;;;;5047829;28;19924;-67
2022/04/29 04:43:25;;;;;;;;;;;6.40;99.90;;;;;;5049273;28;20015;-67
2022/04/29 04:45:51;;;;;;;;;;;6.70;99.90;;;;;;5050882;28;20023;-66
2022/04/29 04:48:18;;;;;;;;;;;6.90;99.90;;;;;;5047990;28;20419;-66
2022/04/29 04:50:45;;;;;;;;;;;7.10;99.90;;;;;;5050441;28;20287;-67
2022/04/29 04:53:12;;;;;;;;;;;7.40;99.90;;;;;;5048053;28;19964;-67
2022/04/29 04:55:41;;;;;;;;;;;7.60;99.90;;;;;;5079818;28;19976;-66
2022/04/29 04:58:09;;;;;;;;;;;7.80;99.90;;;;;;5050599;28;20380;-66
2022/04/29 05:00:39;;;;;;;;;;;8.10;99.90;;;;;;5049457;28;20439;-66
2022/04/29 05:03:06;;;;;;;;;;;8.30;99.90;;;;;;5053715;28;19933;-66
2022/04/29 05:05:33;;;;;;;;;;;8.60;99.90;;;;;;5053469;28;19971;-65
2022/04/29 05:07:59;;;;;;;;;;;8.80;99.90;;;;;;5046925;28;20012;-65
2022/04/29 05:10:26;;;;;;;;;;;9.00;99.90;;;;;;5043213;28;20028;-65
2022/04/29 05:12:56;;;;;;;;;;;9.20;99.90;;;;;;5052857;28;19925;-65
2022/04/29 05:15:22;;;;;;;;;;;9.40;99.90;;;;;;5044570;28;20087;-66
2022/04/29 05:17:49;;;;;;;;;;;9.50;99.90;;;;;;5045569;28;19924;-65
2022/04/29 05:20:16;;;;;;;;;;;9.60;99.90;;;;;;5049005;28;20039;-65
2022/04/29 05:22:47;;;;;;;;;;;9.70;99.90;;;;;;5041732;28;19939;-65
2022/04/29 05:25:14;;;;;;;;;;;9.80;99.90;;;;;;5045916;28;20007;-65
2022/04/29 05:27:41;;;;;;;;;;;9.80;99.90;;;;;;5048400;28;19931;-66
2022/04/29 05:30:09;;;;;;;;;;;10.00;99.90;;;;;;5038339;28;19977;-66
2022/04/29 05:32:37;;;;;;;;;;;10.10;99.90;;;;;;5048363;28;19973;-66
2022/04/29 05:35:04;;;;;;;;;;;10.10;99.90;;;;;;5048323;28;20016;-66
2022/04/29 05:37:31;;;;;;;;;;;10.20;99.90;;;;;;5047662;28;19924;-65
2022/04/29 05:43:04;;;;;;;;;;;10.50;99.90;;;;;;5036838;28;19933;-65
2022/04/29 05:45:31;;;;;;;;;;;10.80;99.90;;;;;;5031512;28;19936;-66
2022/04/29 05:47:58;;;;;;;;;;;11.00;99.90;;;;;;5026623;28;19980;-65
2022/04/29 05:50:24;;;;;;;;;;;11.00;99.90;;;;;;5030548;28;19929;-62
2022/04/29 05:52:51;;;;;;;;;;;11.00;99.90;;;;;;5007305;28;20463;-64
2022/04/29 05:55:18;;;;;;;;;;;11.00;99.90;;;;;;5028451;28;20027;-64
2022/04/29 05:58:05;;;;;;;;;;;11.00;99.90;;;;;;5031049;28;20300;-64
2022/04/29 06:00:31;;;;;;;;;;;11.00;99.90;;;;;;5026703;28;19972;-64
2022/04/29 06:02:58;;;;;;;;;;;11.00;99.90;;;;;;5026954;28;19925;-64
2022/04/29 06:05:25;;;;;;;;;;;11.10;99.90;;;;;;5033800;28;19932;-63
2022/04/29 06:07:54;;;;;;;;;;;11.10;99.90;;;;;;5009334;28;20008;-64
2022/04/29 06:10:21;;;;;;;;;;;11.20;99.90;;;;;;5030050;28;20366;-64
2022/04/29 06:12:48;;;;;;;;;;;11.30;99.90;;;;;;5034652;28;19931;-64
2022/04/29 06:15:16;;;;;;;;;;;11.30;99.90;;;;;;5048590;28;19929;-64
2022/04/29 06:17:45;;;;;;;;;;;11.50;99.90;;;;;;5049612;28;19925;-64
2022/04/29 06:20:12;;;;;;;;;;;11.70;99.90;;;;;;5050261;28;19967;-64
2022/04/29 06:22:43;;;;;;;;;;;11.70;99.90;;;;;;5052175;28;19924;-64
2022/04/29 06:25:10;;;;;;;;;;;11.90;99.90;;;;;;5052298;28;19925;-64
2022/04/29 06:27:38;;;;;;;;;;;12.00;99.90;;;;;;5047082;28;19960;-64
2022/04/29 06:30:05;;;;;;;;;;;12.10;99.90;;;;;;5051036;28;19932;-64
2022/04/29 06:32:31;;;;;;;;;;;12.00;99.90;;;;;;5044894;28;19929;-64
2022/04/29 06:34:58;;;;;;;;;;;12.10;99.90;;;;;;5042108;28;19929;-64
2022/04/29 06:37:27;;;;;;;;;;;12.30;99.90;;;;;;5048905;28;20020;-64
2022/04/29 06:39:54;;;;;;;;;;;12.50;99.90;;;;;;5049890;28;19928;-64
2022/04/29 06:42:20;;;;;;;;;;;12.70;99.90;;;;;;5048363;28;19924;-64
2022/04/29 06:44:47;;;;;;;;;;;12.80;99.90;;;;;;5044757;28;20378;-64
2022/04/29 06:47:16;;;;;;;;;;;12.90;99.90;;;;;;5043546;28;19963;-64
2022/04/29 06:49:43;;;;;;;;;;;13.00;99.90;;;;;;5039243;28;20436;-65
2022/04/29 06:52:10;;;;;;;;;;;13.10;99.90;;;;;;5042303;28;19935;-64
2022/04/29 06:54:37;;;;;;;;;;;13.30;99.90;;;;;;5048507;28;20445;-64
2022/04/29 06:57:04;;;;;;;;;;;13.60;99.90;;;;;;5048439;28;19932;-64
2022/04/29 06:59:31;;;;;;;;;;;13.80;99.90;;;;;;5046284;28;20027;-65
2022/04/29 07:01:58;;;;;;;;;;;14.00;99.90;;;;;;5048737;28;19924;-64
2022/04/29 07:04:25;;;;;;;;;;;14.20;99.90;;;;;;5049077;28;19932;-65
2022/04/29 07:06:54;;;;;;;;;;;14.40;99.90;;;;;;5079067;28;19925;-65
2022/04/29 07:09:21;;;;;;;;;;;14.50;99.90;;;;;;5047752;28;19929;-64
2022/04/29 07:12:05;;;;;;;;;;;14.40;99.90;;;;;;5043211;28;20487;-65
2022/04/29 07:14:32;;;;;;;;;;;14.30;99.90;;;;;;5046785;28;19929;-65
2022/04/29 07:16:58;;;;;;;;;;;14.40;99.90;;;;;;5050578;28;19935;-64
2022/04/29 07:19:25;;;;;;;;;;;14.30;99.90;;;;;;5048851;28;19939;-64
2022/04/29 07:22:12;;;;;;;;;;;14.40;99.90;;;;;;5045501;28;19933;-65
2022/04/29 07:24:39;;;;;;;;;;;14.60;99.90;;;;;;5046188;28;19948;-65
2022/04/29 07:27:05;;;;;;;;;;;14.60;99.90;;;;;;5046406;28;19924;-64
2022/04/29 07:29:32;;;;;;;;;;;14.70;99.90;;;;;;5077516;28;19931;-64
2022/04/29 07:31:59;;;;;;;;;;;14.70;99.90;;;;;;5048156;28;19938;-64
2022/04/29 07:41:44;;;;;;;;;;;14.80;99.90;;;;;;5050060;28;19931;-64
2022/04/29 07:42:43;;;;;;;;;;;15.00;99.90;;;;;;5040227;28;21447;-64
2022/04/29 07:45:09;;;;;;;;;;;15.30;99.90;;;;;;5057658;28;19924;-65
2022/04/29 07:47:36;;;;;;;;;;;15.70;99.90;;;;;;5050851;28;19925;-65
2022/04/29 07:50:03;;;;;;;;;;;16.10;99.90;;;;;;5051523;28;19924;-65
2022/04/29 07:52:30;;;;;;;;;;;16.50;99.90;;;;;;5046416;28;19924;-63
2022/04/29 07:54:57;;;;;;;;;;;16.80;99.90;;;;;;5049171;28;19925;-64
2022/04/29 07:57:23;;;;;;;;;;;16.80;99.90;;;;;;5049435;28;19925;-64
2022/04/29 07:59:50;;;;;;;;;;;17.00;99.90;;;;;;5081119;28;19932;-64
2022/04/29 08:02:18;;;;;;;;;;;17.60;99.90;;;;;;5044662;28;20003;-64
2022/04/29 08:04:48;;;;;;;;;;;17.70;99.90;;;;;;5049591;28;19933;-64
2022/04/29 08:07:14;;;;;;;;;;;17.40;99.90;;;;;;5047970;28;19929;-64
2022/04/29 08:09:44;;;;;;;;;;;17.20;99.90;;;;;;5048378;28;19947;-63
2022/04/29 08:12:12;;;;;;;;;;;17.30;99.90;;;;;;5048946;28;19990;-64
2022/04/29 08:14:40;;;;;;;;;;;17.60;99.90;;;;;;5050048;28;19994;-64
2022/04/29 08:17:15;;;;;;;;;;;17.70;99.90;;;;;;5045038;28;20059;-64
2022/04/29 08:19:43;;;;;;;;;;;;;;;;;;5049778;28;20360;-65
2022/04/29 08:22:12;;;;;;;;;;;18.60;99.90;;;;;;5047369;28;20374;-64
2022/04/29 08:24:39;;;;;;;;;;;19.00;99.90;;;;;;5049830;28;19929;-64
2022/04/29 08:27:07;;;;;;;;;;;;;;;;;;5047847;28;19924;-64
2022/04/29 08:29:35;;;;;;;;;;;19.80;99.90;;;;;;5048322;28;20008;-64
2022/04/29 08:32:05;;;;;;;;;;;20.50;99.90;;;;;;5047408;28;19933;-64
2022/04/29 08:34:33;;;;;;;;;;;21.10;99.90;;;;;;5040854;28;19932;-64
2022/04/29 08:37:03;;;;;;;;;;;21.40;99.90;;;;;;5042611;28;20011;-64
2022/04/29 08:39:32;;;;;;;;;;;;;;;;;;5043015;28;19939;-64
2022/04/29 08:42:00;;;;;;;;;;;22.60;99.90;;;;;;5046995;28;19931;-62
2022/04/29 08:44:30;;;;;;;;;;;22.40;99.90;;;;;;5043478;28;19933;-63
2022/04/29 08:47:00;;;;;;;;;;;22.90;99.90;;;;;;5048852;28;19925;-63
2022/04/29 08:49:27;;;;;;;;;;;23.20;99.90;;;;;;5048454;28;20326;-63
2022/04/29 08:51:55;;;;;;;;;;;23.40;99.90;;;;;;5045115;28;20537;-63
2022/04/29 09:00:00;;;;;;;;;;;22.40;99.90;;;;;;5041261;28;19939;-58
2022/04/29 09:02:27;;;;;;;;;;;22.00;99.90;;;;;;5047592;28;19928;-58
2022/04/29 09:04:56;;;;;;;;;;;21.80;99.90;;;;;;5038245;28;19924;-57
2022/04/29 09:07:43;;;;;;;;;;;21.80;99.90;;;;;;5045794;28;19929;-57
2022/04/29 09:10:10;;;;;;;;;;;22.30;99.90;;;;;;5053669;28;19935;-57
2022/04/29 09:12:37;;;;;;;;;;;22.20;99.90;;;;;;5043126;28;19925;-58
2022/04/29 09:15:13;;;;;;;;;;;22.60;99.90;;;;;;5042063;28;19935;-58
2022/04/29 09:17:46;;;;;;;;;;;22.30;99.90;;;;;;5044403;28;19924;-58
2022/04/29 09:20:16;;;;;;;;;;;22.60;99.90;;;;;;5041452;28;20385;-58
2022/04/29 09:22:46;;;;;;;;;;;23.30;99.90;;;;;;5039889;28;20339;-58
2022/04/29 09:25:13;;;;;;;;;;;24.30;99.90;;;;;;5048471;28;19928;-58
2022/04/29 09:27:53;;;;;;;;;;;24.70;99.90;;;;;;5041054;28;19943;-58
2022/04/29 09:30:37;;;;;;;;;;;24.70;99.10;;;;;;5043324;28;19925;-58
2022/04/29 09:33:05;;;;;;;;;;;25.30;98.20;;;;;;5046516;28;19931;-58
2022/04/29 09:35:38;;;;;;;;;;;26.20;97.40;;;;;;5046158;28;19925;-58
2022/04/29 09:40:52;;;;;;;;;;;26.80;96.50;;;;;;5045805;28;20626;-58
2022/04/29 09:43:36;;;;;;;;;;;27.00;95.70;;;;;;5047373;28;19932;-58
2022/04/29 09:46:20;;;;;;;;;;;26.80;96.40;;;;;;5037605;28;19924;-58
2022/04/29 09:49:10;;;;;;;;;;;26.80;94.90;;;;;;5048154;28;20387;-58
2022/04/29 09:51:39;;;;;;;;;;;26.10;95.20;;;;;;5042096;28;19931;-58
2022/04/29 09:54:17;;;;;;;;;;;26.40;95.50;;;;;;5050359;28;20670;-59
2022/04/29 09:56:45;;;;;;;;;;;26.80;94.00;;;;;;5049771;28;19935;-58
2022/04/29 09:59:12;;;;;;;;;;;26.80;93.40;;;;;;5043842;28;19983;-59
2022/04/29 10:01:40;;;;;;;;;;;27.00;92.60;;;;;;5051141;28;19925;-58
2022/04/29 10:04:08;;;;;;;;;;;26.90;91.90;;;;;;5049021;28;20023;-59
2022/04/29 10:06:37;;;;;;;;;;;26.70;92.00;;;;;;5047819;28;19982;-60
2022/04/29 10:09:05;;;;;;;;;;;26.60;92.70;;;;;;5047660;28;19925;-60
2022/04/29 10:11:32;;;;;;;;;;;26.90;92.60;;;;;;5048884;28;19982;-59
2022/04/29 10:14:01;;;;;;;;;;;26.70;91.50;;;;;;5048171;28;19925;-59
2022/04/29 10:16:30;;;;;;;;;;;26.90;90.70;;;;;;5050800;28;20342;-59
2022/04/29 10:21:51;;;;;;;;;;;26.90;88.00;;;;;;5048367;28;19928;-59
2022/04/29 10:24:18;;;;;;;;;;;26.50;89.00;;;;;;5045778;28;19933;-59
2022/04/29 10:26:45;;;;;;;;;;;26.40;88.20;;;;;;5043930;28;20031;-59
2022/04/29 10:29:12;;;;;;;;;;;26.10;89.50;;;;;;5044585;28;19939;-59
2022/04/29 10:31:39;;;;;;;;;;;26.10;89.70;;;;;;5049030;28;19925;-59
2022/04/29 10:34:24;;;;;;;;;;;25.90;88.60;;;;;;5048347;28;19936;-59
2022/04/29 10:36:51;;;;;;;;;;;25.50;89.50;;;;;;5049593;28;20019;-60
2022/04/29 10:39:20;;;;;;;;;;;25.20;90.60;;;;;;5049700;28;19924;-59
2022/04/29 10:41:57;;;;;;;;;;;25.00;89.60;;;;;;5054502;28;19935;-59
2022/04/29 10:44:24;;;;;;;;;;;25.20;90.40;;;;;;5044311;28;19932;-59
2022/04/29 10:47:16;;;;;;;;;;;26.20;90.10;;;;;;5047718;28;20342;-59
2022/04/29 10:49:46;;;;;;;;;;;27.30;88.60;;;;;;5056803;28;20003;-59
2022/04/29 10:52:23;;;;;;;;;;;27.80;88.40;;;;;;5045899;28;19933;-59
2022/04/29 10:54:55;;;;;;;;;;;28.70;86.80;;;;;;5044631;28;19940;-60
2022/04/29 10:57:35;;;;;;;;;;;28.90;84.60;;;;;;5035797;28;19936;-58
2022/04/29 11:00:07;;;;;;;;;;;28.50;85.20;;;;;;5044677;28;19978;-58
2022/04/29 11:02:43;;;;;;;;;;;28.80;84.50;;;;;;5040181;28;20310;-58
2022/04/29 11:05:30;;;;;;;;;;;29.20;82.90;;;;;;5042866;28;19931;-58
2022/04/29 11:08:05;;;;;;;;;;;29.70;83.50;;;;;;5042276;28;20046;-58
2022/04/29 11:10:55;;;;;;;;;;;29.70;82.70;;;;;;5046122;28;20511;-59
2022/04/29 11:13:23;;;;;;;;;;;28.70;82.10;;;;;;5048951;28;19964;-58
2022/04/29 11:16:05;;;;;;;;;;;27.40;81.10;;;;;;5043351;28;20455;-58
2022/04/29 11:18:32;;;;;;;;;;;26.40;79.40;;;;;;5037001;28;20015;-58
2022/04/29 11:21:00;;;;;;;;;;;25.40;79.60;;;;;;5042306;28;19932;-58
2022/04/29 11:26:13;;;;;;;;;;;24.80;81.80;;;;;;5049903;28;19987;-59
2022/04/29 11:28:40;;;;;;;;;;;24.90;84.60;;;;;;5046897;28;20211;-59
2022/04/29 11:31:08;;;;;;;;;;;25.10;82.80;;;;;;5042455;28;20477;-59
2022/04/29 11:33:35;;;;;;;;;;;24.70;81.10;;;;;;5040598;28;20007;-59
2022/04/29 11:36:06;;;;;;;;;;;24.40;83.90;;;;;;5046191;28;19931;-59
2022/04/29 11:38:40;;;;;;;;;;;24.50;82.90;;;;;;5047735;28;20392;-59
2022/04/29 11:41:06;;;;;;;;;;;24.60;81.90;;;;;;5046415;28;19929;-60
2022/04/29 11:43:33;;;;;;;;;;;24.90;81.90;;;;;;5049035;28;19933;-60
2022/04/29 11:46:05;;;;;;;;;;;25.00;82.80;;;;;;5042996;28;19928;-60
2022/04/29 11:48:33;;;;;;;;;;;25.50;81.20;;;;;;5049180;28;20019;-60
2022/04/29 11:51:01;;;;;;;;;;;26.00;81.90;;;;;;5048358;28;19929;-60
2022/04/29 11:53:27;;;;;;;;;;;26.30;80.60;;;;;;5036386;28;19925;-63
2022/04/29 11:55:54;;;;;;;;;;;26.70;80.30;;;;;;5041974;28;19978;-59
2022/04/29 11:58:21;;;;;;;;;;;26.40;80.50;;;;;;5044657;28;20007;-59
2022/04/29 12:00:49;;;;;;;;;;;25.90;79.50;;;;;;5038397;28;19925;-59
2022/04/29 12:03:19;;;;;;;;;;;25.40;81.30;;;;;;5043095;28;19939;-59
2022/04/29 12:05:46;;;;;;;;;;;24.70;82.90;;;;;;5041578;28;19986;-59
2022/04/29 12:08:14;;;;;;;;;;;24.00;82.70;;;;;;5044519;28;19924;-60
2022/04/29 12:10:45;;;;;;;;;;;23.80;84.40;;;;;;5040279;28;19929;-60
2022/04/29 12:13:14;;;;;;;;;;;24.20;82.70;;;;;;5045089;28;20247;-60
2022/04/29 12:15:42;;;;;;;;;;;24.00;82.20;;;;;;5045004;28;19928;-60
2022/04/29 12:18:09;;;;;;;;;;;24.00;83.90;;;;;;5046558;28;19935;-58
2022/04/29 12:20:44;;;;;;;;;;;24.40;83.20;;;;;;5044785;28;20364;-59
2022/04/29 12:23:24;;;;;;;;;;;24.90;83.80;;;;;;5051067;28;20353;-59
2022/04/29 12:25:52;;;;;;;;;;;25.70;82.60;;;;;;5046724;28;19932;-59
2022/04/29 12:28:19;;;;;;;;;;;25.90;82.00;;;;;;5046089;28;21284;-59
2022/04/29 12:36:31;;;;;;;;;;;25.90;81.40;;;;;;5048863;28;19936;-59
2022/04/29 12:39:05;;;;;;;;;;;26.30;85.30;;;;;;5039919;28;19932;-59
2022/04/29 12:41:32;;;;;;;;;;;27.00;81.60;;;;;;5046934;28;20270;-59
2022/04/29 12:44:08;;;;;;;;;;;26.60;80.50;;;;;;5047237;28;19925;-59
2022/04/29 12:46:35;;;;;;;;;;;26.20;83.10;;;;;;5041672;28;19935;-59
2022/04/29 12:49:06;;;;;;;;;;;27.00;82.20;;;;;;5047716;28;19983;-59
2022/04/29 12:51:34;;;;;;;;;;;26.30;83.00;;;;;;5044576;28;19929;-60
2022/04/29 12:54:02;;;;;;;;;;;25.60;82.50;;;;;;5046169;28;20047;-59
2022/04/29 12:56:30;;;;;;;;;;;24.80;83.40;;;;;;5045439;28;19924;-59
2022/04/29 12:58:57;;;;;;;;;;;24.10;82.70;;;;;;5075465;28;19948;-59
2022/04/29 13:01:24;;;;;;;;;;;23.70;84.90;;;;;;5047599;28;19933;-59
2022/04/29 13:03:52;;;;;;;;;;;23.70;84.30;;;;;;5042841;28;20376;-59
2022/04/29 13:06:20;;;;;;;;;;;23.80;84.20;;;;;;5046749;28;20368;-60
2022/04/29 13:08:50;;;;;;;;;;;24.30;84.20;;;;;;5041028;28;19933;-59
2022/04/29 13:11:17;;;;;;;;;;;24.50;83.80;;;;;;5051539;28;19928;-60
2022/04/29 13:13:43;;;;;;;;;;;24.70;84.10;;;;;;5044869;28;19924;-59
2022/04/29 13:16:11;;;;;;;;;;;24.40;83.80;;;;;;5046610;28;19924;-59
2022/04/29 13:18:38;;;;;;;;;;;24.60;84.00;;;;;;5052079;28;19925;-61
2022/04/29 13:21:09;;;;;;;;;;;24.40;82.60;;;;;;5051058;28;19928;-60
2022/04/29 13:23:36;;;;;;;;;;;24.60;82.50;;;;;;5051684;28;20019;-61
2022/04/29 13:26:03;;;;;;;;;;;24.60;82.70;;;;;;5049811;28;19932;-60
2022/04/29 13:28:31;;;;;;;;;;;24.60;84.10;;;;;;5051005;28;20419;-59
2022/04/29 13:31:01;;;;;;;;;;;25.00;83.60;;;;;;5050340;28;20539;-59
2022/04/29 13:33:28;;;;;;;;;;;25.60;85.20;;;;;;5077878;28;19932;-59
2022/04/29 13:35:55;;;;;;;;;;;26.90;83.30;;;;;;5053430;28;19960;-59
2022/04/29 13:38:23;;;;;;;;;;;27.50;80.90;;;;;;5045445;28;20019;-59
2022/04/29 13:40:50;;;;;;;;;;;27.50;80.20;;;;;;5059512;28;19932;-59
2022/04/29 13:43:17;;;;;;;;;;;26.60;79.80;;;;;;5044148;28;19929;-59
2022/04/29 13:45:47;;;;;;;;;;;25.90;81.10;;;;;;5043199;28;20016;-60
2022/04/29 13:48:14;;;;;;;;;;;25.20;82.30;;;;;;5046394;28;19929;-59
2022/04/29 13:50:42;;;;;;;;;;;24.30;83.20;;;;;;5056260;28;19929;-59
2022/04/29 13:53:09;;;;;;;;;;;23.70;82.40;;;;;;5061779;28;19924;-59
2022/04/29 13:55:37;;;;;;;;;;;23.80;82.40;;;;;;5050023;28;19980;-60
2022/04/29 13:58:03;;;;;;;;;;;24.20;82.70;;;;;;5056100;28;19928;-60
2022/04/29 14:00:30;;;;;;;;;;;24.70;82.20;;;;;;5055849;28;19960;-60
2022/04/29 14:02:58;;;;;;;;;;;25.40;82.80;;;;;;5077082;28;19952;-60
2022/04/29 14:05:27;;;;;;;;;;;25.80;82.60;;;;;;5048426;28;20503;-60
2022/04/29 14:07:54;;;;;;;;;;;24.80;82.50;;;;;;5049098;28;19924;-60
2022/04/29 14:10:21;;;;;;;;;;;24.30;82.60;;;;;;5049235;28;19924;-59
2022/04/29 14:12:49;;;;;;;;;;;24.20;83.50;;;;;;5047371;28;19933;-59
2022/04/29 14:15:16;;;;;;;;;;;24.00;82.80;;;;;;5047862;28;19931;-59
2022/04/29 14:17:44;;;;;;;;;;;24.30;83.20;;;;;;5046829;28;20399;-60
2022/04/29 14:20:12;;;;;;;;;;;24.80;82.80;;;;;;5065714;28;19932;-60
2022/04/29 14:22:41;;;;;;;;;;;25.30;83.10;;;;;;5044465;28;19931;-58
2022/04/29 14:25:16;;;;;;;;;;;25.70;82.00;;;;;;5048060;28;19934;-59
2022/04/29 14:27:45;;;;;;;;;;;25.50;83.00;;;;;;5045743;28;19929;-59
2022/04/29 14:30:13;;;;;;;;;;;24.90;82.60;;;;;;5049334;28;20040;-59
2022/04/29 14:32:40;;;;;;;;;;;24.40;83.20;;;;;;5047593;28;19944;-59
2022/04/29 14:35:08;;;;;;;;;;;24.50;82.80;;;;;;5038620;28;20328;-60
2022/04/29 14:37:35;;;;;;;;;;;24.60;82.50;;;;;;5046503;28;19932;-59
2022/04/29 14:40:03;;;;;;;;;;;24.50;82.70;;;;;;5049573;28;20011;-59
2022/04/29 14:42:29;;;;;;;;;;;24.60;83.20;;;;;;5049785;28;19931;-59
2022/04/29 14:44:56;;;;;;;;;;;24.90;83.20;;;;;;5050083;28;20632;-59
2022/04/29 14:47:25;;;;;;;;;;;25.10;83.00;;;;;;5048384;28;19924;-60
2022/04/29 14:49:52;;;;;;;;;;;25.40;82.10;;;;;;5043156;28;19925;-60
2022/04/29 14:52:19;;;;;;;;;;;26.70;82.70;;;;;;5048810;28;20012;-60
2022/04/29 14:54:48;;;;;;;;;;;27.60;80.30;;;;;;5043247;28;19933;-59
2022/04/29 14:57:14;;;;;;;;;;;27.70;80.50;;;;;;5046102;28;19925;-58
2022/04/29 14:59:41;;;;;;;;;;;27.10;79.10;;;;;;5043470;28;19924;-59
2022/04/29 15:02:08;;;;;;;;;;;27.10;80.50;;;;;;5052281;28;20279;-58
2022/04/29 15:04:35;;;;;;;;;;;27.40;79.40;;;;;;5049115;28;19932;-59
2022/04/29 15:07:04;;;;;;;;;;;27.00;78.50;;;;;;5048187;28;20016;-59